createdAt,value
2019-02-25T00:00:49.958Z,49.55
2019-02-25T00:03:21.955Z,49.65
2019-02-25T00:05:54.025Z,49.76
2019-02-25T00:08:26.136Z,48.90
2019-02-25T00:10:58.185Z,49.32
2019-02-25T00:13:30.240Z,49.82
2019-02-25T00:16:02.245Z,49.16
2019-02-25T00:18:34.266Z,49.25
2019-02-25T00:21:06.287Z,48.64
2019-02-25T00:23:38.329Z,48.66
2019-02-25T00:26:10.384Z,48.60
2019-02-25T00:28:42.432Z,49.59
2019-02-25T00:31:14.486Z,48.94
2019-02-25T00:33:46.485Z,48.72
2019-02-25T00:36:18.499Z,48.79
2019-02-25T00:39:31.333Z,48.43
2019-02-25T00:42:03.375Z,47.64
2019-02-25T00:44:35.381Z,47.35
2019-02-25T00:47:07.399Z,46.69
2019-02-25T00:49:39.444Z,46.34
2019-02-25T00:52:11.446Z,46.97
2019-02-25T00:54:43.427Z,48.72
2019-02-25T00:57:15.405Z,49.52
2019-02-25T00:59:47.389Z,49.66
2019-02-25T01:02:19.373Z,49.24
2019-02-25T01:04:51.399Z,49.06
2019-02-25T01:07:23.387Z,49.43
2019-02-25T01:09:55.344Z,49.32
2019-02-25T01:12:27.333Z,49.28
2019-02-25T01:14:59.300Z,48.22
2019-02-25T01:17:31.285Z,47.83
2019-02-25T01:20:03.312Z,47.27
2019-02-25T01:22:35.319Z,46.99
2019-02-25T01:25:08.315Z,46.74
2019-02-25T01:27:40.313Z,46.19
2019-02-25T01:30:12.418Z,45.84
2019-02-25T01:32:44.421Z,46.03
2019-02-25T01:35:16.387Z,47.15
2019-02-25T01:37:48.368Z,48.14
2019-02-25T01:40:20.320Z,48.83
2019-02-25T01:42:52.316Z,49.06
2019-02-25T01:45:24.270Z,48.62
2019-02-25T01:47:56.287Z,48.12
2019-02-25T01:50:28.265Z,47.78
2019-02-25T01:53:00.258Z,47.92
2019-02-25T01:55:32.228Z,47.98
2019-02-25T01:58:04.261Z,47.72
2019-02-25T02:00:36.184Z,47.39
2019-02-25T02:03:09.035Z,46.50
2019-02-25T02:05:40.989Z,45.96
2019-02-25T02:08:12.984Z,45.62
2019-02-25T02:10:44.937Z,45.50
2019-02-25T02:13:16.948Z,45.47
2019-02-25T02:15:49.031Z,46.60
2019-02-25T02:18:21.034Z,47.49
2019-02-25T02:20:52.999Z,46.54
2019-02-25T02:23:25.004Z,47.35
2019-02-25T02:25:57.030Z,46.75
2019-02-25T02:28:28.967Z,48.13
2019-02-25T02:31:00.956Z,48.33
2019-02-25T02:33:32.935Z,48.35
2019-02-25T02:36:04.920Z,48.90
2019-02-25T02:38:36.895Z,48.70
2019-02-25T02:41:08.872Z,49.61
2019-02-25T02:43:40.865Z,49.89
2019-02-25T02:46:25.290Z,49.99
2019-02-25T02:49:00.999Z,50.42
2019-02-25T02:51:32.983Z,50.54
2019-02-25T02:54:04.960Z,50.81
2019-02-25T02:56:36.930Z,50.74
2019-02-25T02:59:08.940Z,51.17
2019-02-25T03:01:40.935Z,50.57
2019-02-25T03:04:13.014Z,50.66
2019-02-25T03:06:45.011Z,51.39
2019-02-25T03:09:16.993Z,51.79
2019-02-25T03:11:49.001Z,52.26
2019-02-25T03:14:20.983Z,52.85
2019-02-25T03:16:52.965Z,52.49
2019-02-25T03:19:24.916Z,52.60
2019-02-25T03:21:56.898Z,52.66
2019-02-25T03:24:28.850Z,52.90
2019-02-25T03:27:00.855Z,53.31
2019-02-25T03:29:32.832Z,53.30
2019-02-25T03:32:04.831Z,53.64
2019-02-25T03:34:36.840Z,53.86
2019-02-25T03:37:08.833Z,54.48
2019-02-25T03:39:40.799Z,54.70
2019-02-25T03:42:12.821Z,54.70
2019-02-25T03:44:44.779Z,54.86
2019-02-25T03:47:16.766Z,54.95
2019-02-25T03:49:48.725Z,55.12
2019-02-25T03:52:20.720Z,55.20
2019-02-25T03:54:52.666Z,55.12
2019-02-25T03:57:24.679Z,55.49
2019-02-25T03:59:56.640Z,55.56
2019-02-25T04:02:28.634Z,55.52
2019-02-25T04:05:00.639Z,55.51
2019-02-25T04:07:32.616Z,55.40
2019-02-25T04:10:05.232Z,55.77
2019-02-25T04:12:37.180Z,55.23
2019-02-25T04:15:11.600Z,55.74
2019-02-25T04:17:43.581Z,55.46
2019-02-25T04:20:15.562Z,55.65
2019-02-25T04:22:47.558Z,55.92
2019-02-25T04:25:19.565Z,55.92
2019-02-25T04:27:51.513Z,55.77
2019-02-25T04:30:23.477Z,56.00
2019-02-25T04:32:55.459Z,55.65
2019-02-25T04:35:27.440Z,55.62
2019-02-25T04:37:59.461Z,55.97
2019-02-25T04:40:31.465Z,55.94
2019-02-25T04:43:03.446Z,55.89
2019-02-25T04:45:35.460Z,55.98
2019-02-25T04:48:07.413Z,55.75
2019-02-25T04:50:39.410Z,56.63
2019-02-25T04:53:11.376Z,56.07
2019-02-25T04:55:43.368Z,55.98
2019-02-25T04:58:15.358Z,55.88
2019-02-25T05:00:47.347Z,55.80
2019-02-25T05:03:19.335Z,56.14
2019-02-25T05:05:51.338Z,56.12
2019-02-25T05:08:23.317Z,56.02
2019-02-25T05:10:55.318Z,56.36
2019-02-25T05:13:27.282Z,56.58
2019-02-25T05:15:59.284Z,56.37
2019-02-25T05:18:31.227Z,56.59
2019-02-25T05:21:03.225Z,56.32
2019-02-25T05:23:35.214Z,56.50
2019-02-25T05:26:07.235Z,56.65
2019-02-25T05:28:39.196Z,56.67
2019-02-25T05:31:11.193Z,56.97
2019-02-25T05:33:43.157Z,56.52
2019-02-25T05:36:15.142Z,56.68
2019-02-25T05:38:47.133Z,56.86
2019-02-25T05:41:19.117Z,56.78
2019-02-25T05:43:51.067Z,56.54
2019-02-25T05:46:23.064Z,56.52
2019-02-25T05:48:55.058Z,56.78
2019-02-25T05:51:27.059Z,56.36
2019-02-25T05:53:59.028Z,56.00
2019-02-25T05:56:31.039Z,55.32
2019-02-25T05:59:02.983Z,55.74
2019-02-25T06:01:34.944Z,56.39
2019-02-25T06:04:06.933Z,56.58
2019-02-25T06:06:39.028Z,56.80
2019-02-25T06:09:10.999Z,57.02
2019-02-25T06:11:42.988Z,56.86
2019-02-25T06:14:14.940Z,57.49
2019-02-25T06:16:47.025Z,57.75
2019-02-25T06:19:19.052Z,57.15
2019-02-25T06:21:51.013Z,55.94
2019-02-25T06:24:23.147Z,55.94
2019-02-25T06:26:55.104Z,56.25
2019-02-25T06:29:27.112Z,56.16
2019-02-25T06:31:59.099Z,56.09
2019-02-25T06:34:31.093Z,56.00
2019-02-25T06:37:03.042Z,56.16
2019-02-25T06:39:35.039Z,56.35
2019-02-25T06:42:06.984Z,56.29
2019-02-25T06:44:38.993Z,55.81
2019-02-25T06:47:12.692Z,54.97
2019-02-25T06:49:44.733Z,54.23
2019-02-25T06:52:16.736Z,53.86
2019-02-25T06:54:48.806Z,53.39
2019-02-25T06:57:20.917Z,52.50
2019-02-25T06:59:52.951Z,52.15
2019-02-25T07:02:24.973Z,50.33
2019-02-25T07:05:16.620Z,50.56
2019-02-25T07:08:02.464Z,49.22
2019-02-25T07:10:48.131Z,49.39
2019-02-25T07:13:45.638Z,48.83
2019-02-25T07:16:52.308Z,48.40
2019-02-25T07:19:35.148Z,47.99
2019-02-25T07:22:32.663Z,47.27
2019-02-25T07:25:33.838Z,47.25
2019-02-25T07:28:31.145Z,47.83
2019-02-25T07:31:31.561Z,46.42
2019-02-25T07:34:16.104Z,45.35
2019-02-25T07:37:02.676Z,44.59
2019-02-25T07:39:49.314Z,44.41
2019-02-25T07:42:37.659Z,44.04
2019-02-25T07:45:37.095Z,43.68
2019-02-25T07:48:17.509Z,42.88
2019-02-25T07:50:57.163Z,43.00
2019-02-25T07:53:51.503Z,42.90
2019-02-25T07:56:49.034Z,42.77
2019-02-25T07:59:26.070Z,42.24
2019-02-25T08:02:20.460Z,41.82
2019-02-25T08:05:23.990Z,41.70
2019-02-25T08:08:06.182Z,41.30
2019-02-25T08:11:10.116Z,41.07
2019-02-25T08:13:55.173Z,40.24
2019-02-25T08:16:37.329Z,39.56
2019-02-25T08:19:22.427Z,38.91
2019-02-25T08:22:23.227Z,39.01
2019-02-25T08:25:13.447Z,38.92
2019-02-25T08:28:04.350Z,38.16
2019-02-25T08:30:48.435Z,37.54
2019-02-25T08:33:38.618Z,37.10
2019-02-25T08:36:49.789Z,36.47
2019-02-25T08:39:53.664Z,35.68
2019-02-25T08:42:33.335Z,35.88
2019-02-25T08:45:36.990Z,34.73
2019-02-25T08:48:20.871Z,34.70
2019-02-25T08:50:52.890Z,33.66
2019-02-25T08:53:24.860Z,32.27
2019-02-25T08:55:58.348Z,32.10
2019-02-25T08:58:30.565Z,32.07
2019-02-25T09:01:02.576Z,31.68
2019-02-25T09:03:34.583Z,30.44
2019-02-25T09:06:06.565Z,29.36
2019-02-25T09:08:38.595Z,28.86
2019-02-25T09:11:14.138Z,26.92
2019-02-25T09:13:44.581Z,26.72
2019-02-25T09:16:16.629Z,26.86
2019-02-25T09:18:48.609Z,27.31
2019-02-25T09:21:20.653Z,27.54
2019-02-25T09:23:52.606Z,27.12
2019-02-25T09:26:24.646Z,26.08
2019-02-25T09:28:57.351Z,26.74
2019-02-25T09:31:29.526Z,25.94
2019-02-25T09:34:01.620Z,25.88
2019-02-25T09:36:33.622Z,25.66
2019-02-25T09:39:09.870Z,25.05
2019-02-25T09:41:41.890Z,25.70
2019-02-25T09:44:13.831Z,25.40
2019-02-25T09:46:45.923Z,24.92
2019-02-25T09:49:17.884Z,24.63
2019-02-25T09:51:49.868Z,24.98
2019-02-25T09:54:21.885Z,24.36
2019-02-25T09:56:53.900Z,23.80
2019-02-25T09:59:25.901Z,24.48
2019-02-25T10:01:57.905Z,24.48
2019-02-25T10:04:29.877Z,24.08
2019-02-25T10:07:02.634Z,23.87
2019-02-25T10:09:34.671Z,23.79
2019-02-25T10:12:06.762Z,23.67
2019-02-25T10:14:38.728Z,23.38
2019-02-25T10:17:10.784Z,23.95
2019-02-25T10:19:42.776Z,23.42
2019-02-25T10:22:14.781Z,23.20
2019-02-25T10:24:46.774Z,23.27
2019-02-25T10:27:18.821Z,23.33
2019-02-25T10:29:50.818Z,23.55
2019-02-25T10:32:23.670Z,23.31
2019-02-25T10:34:56.695Z,23.48
2019-02-25T10:37:28.685Z,23.42
2019-02-25T10:40:00.660Z,23.44
2019-02-25T10:42:33.544Z,23.31
2019-02-25T10:45:11.045Z,23.21
2019-02-25T10:47:44.251Z,23.63
2019-02-25T10:50:17.459Z,23.83
2019-02-25T10:52:49.671Z,23.70
2019-02-25T10:55:28.200Z,23.96
2019-02-25T10:58:02.027Z,23.34
2019-02-25T11:00:35.233Z,23.76
2019-02-25T11:03:08.442Z,24.70
2019-02-25T11:05:40.483Z,24.45
2019-02-25T11:08:14.344Z,24.44
2019-02-25T11:10:59.764Z,25.14
2019-02-25T11:13:32.296Z,25.47
2019-02-25T11:16:05.624Z,25.61
2019-02-25T11:18:37.645Z,25.52
2019-02-25T11:23:40.118Z,26.18
2019-02-25T11:26:12.306Z,26.05
2019-02-25T11:28:44.327Z,26.72
2019-02-25T11:31:18.177Z,26.93
2019-02-25T11:33:50.180Z,26.82
2019-02-25T11:36:22.226Z,27.11
2019-02-25T11:38:54.209Z,26.96
2019-02-25T11:41:26.195Z,27.15
2019-02-25T11:43:58.206Z,27.57
2019-02-25T11:46:30.213Z,28.67
2019-02-25T11:49:02.199Z,28.30
2019-02-25T11:51:34.210Z,30.02
2019-02-25T11:54:06.159Z,30.23
2019-02-25T11:56:38.188Z,30.61
2019-02-25T11:59:10.156Z,30.29
2019-02-25T12:01:42.165Z,30.64
2019-02-25T12:04:14.149Z,31.33
2019-02-25T12:06:46.122Z,31.71
2019-02-25T12:09:58.942Z,31.86
2019-02-25T12:12:30.965Z,31.62
2019-02-25T12:15:04.121Z,32.23
2019-02-25T12:17:36.137Z,32.25
2019-02-25T12:20:09.089Z,32.04
2019-02-25T12:22:41.107Z,31.75
2019-02-25T12:25:13.505Z,31.97
2019-02-25T12:27:45.533Z,31.86
2019-02-25T12:30:17.880Z,32.04
2019-02-25T12:32:49.869Z,32.01
2019-02-25T12:35:21.882Z,32.33
2019-02-25T12:37:53.873Z,32.25
2019-02-25T12:40:25.862Z,32.35
2019-02-25T12:42:57.889Z,31.94
2019-02-25T12:45:29.898Z,32.51
2019-02-25T12:48:01.966Z,32.12
2019-02-25T12:50:33.976Z,31.92
2019-02-25T12:53:05.970Z,31.68
2019-02-25T12:55:37.977Z,32.18
2019-02-25T12:58:29.565Z,32.07
2019-02-25T13:01:01.531Z,32.00
2019-02-25T13:03:33.540Z,31.54
2019-02-25T13:06:05.504Z,31.47
2019-02-25T13:08:37.510Z,31.17
2019-02-25T13:11:09.517Z,31.23
2019-02-25T13:13:41.522Z,31.00
2019-02-25T13:16:13.489Z,31.05
2019-02-25T13:18:45.548Z,31.00
2019-02-25T13:21:17.541Z,31.12
2019-02-25T13:23:49.508Z,30.90
2019-02-25T13:26:21.515Z,30.91
2019-02-25T13:28:53.504Z,31.09
2019-02-25T13:31:27.423Z,30.66
2019-02-25T13:33:59.426Z,30.70
2019-02-25T13:36:31.395Z,30.73
2019-02-25T13:39:04.790Z,30.61
2019-02-25T13:41:36.895Z,30.45
2019-02-25T13:44:08.956Z,30.96
2019-02-25T13:46:41.243Z,30.13
2019-02-25T13:49:13.243Z,30.07
2019-02-25T13:51:45.250Z,29.79
2019-02-25T13:54:17.327Z,29.91
2019-02-25T13:56:51.114Z,29.80
2019-02-25T13:59:23.161Z,29.41
2019-02-25T14:01:55.266Z,29.61
2019-02-25T14:04:27.278Z,29.44
2019-02-25T14:06:59.248Z,29.37
2019-02-25T14:09:33.149Z,29.55
2019-02-25T14:12:05.296Z,29.67
2019-02-25T14:14:37.236Z,29.81
2019-02-25T14:17:09.231Z,30.04
2019-02-25T14:19:41.268Z,29.44
2019-02-25T14:22:14.846Z,29.77
2019-02-25T14:24:49.419Z,30.03
2019-02-25T14:27:21.458Z,30.16
2019-02-25T14:29:53.466Z,30.13
2019-02-25T14:32:27.792Z,30.06
2019-02-25T14:35:01.162Z,30.25
2019-02-25T14:37:33.167Z,30.37
2019-02-25T14:40:06.641Z,30.67
2019-02-25T14:42:39.795Z,30.93
2019-02-25T14:45:14.669Z,30.77
2019-02-25T14:47:49.760Z,30.65
2019-02-25T14:50:22.210Z,30.97
2019-02-25T14:52:54.225Z,31.32
2019-02-25T14:55:27.922Z,31.47
2019-02-25T14:58:04.219Z,31.62
2019-02-25T15:00:35.290Z,32.06
2019-02-25T15:03:08.146Z,32.21
2019-02-25T15:05:40.149Z,32.28
2019-02-25T15:08:12.262Z,32.51
2019-02-25T15:10:44.288Z,32.78
2019-02-25T15:13:16.286Z,32.53
2019-02-25T15:15:50.084Z,32.87
2019-02-25T15:18:24.505Z,32.91
2019-02-25T15:20:58.318Z,32.98
2019-02-25T15:23:30.404Z,33.13
2019-02-25T15:26:06.173Z,33.26
2019-02-25T15:28:36.450Z,33.13
2019-02-25T15:31:09.486Z,33.13
2019-02-25T15:33:42.688Z,33.09
2019-02-25T15:36:17.459Z,33.09
2019-02-25T15:38:50.836Z,32.98
2019-02-25T15:41:22.828Z,33.46
2019-02-25T15:43:57.886Z,33.99
2019-02-25T15:46:29.682Z,33.13
2019-02-25T15:49:01.828Z,33.29
2019-02-25T15:51:35.071Z,34.08
2019-02-25T15:54:10.074Z,34.41
2019-02-25T15:56:42.034Z,34.66
2019-02-25T15:59:14.080Z,34.48
2019-02-25T16:01:46.565Z,35.12
2019-02-25T16:04:18.605Z,34.96
2019-02-25T16:06:51.275Z,35.32
2019-02-25T16:09:25.940Z,35.60
2019-02-25T16:11:58.947Z,35.83
2019-02-25T16:14:32.360Z,36.21
2019-02-25T16:17:04.353Z,35.87
2019-02-25T16:19:41.511Z,35.73
2019-02-25T16:22:11.841Z,36.36
2019-02-25T16:24:43.978Z,36.78
2019-02-25T16:27:16.798Z,36.98
2019-02-25T16:29:49.462Z,36.96
2019-02-25T16:32:21.895Z,36.62
2019-02-25T16:34:56.000Z,36.75
2019-02-25T16:37:31.199Z,36.52
2019-02-25T16:40:05.949Z,36.51
2019-02-25T16:42:39.362Z,36.77
2019-02-25T16:45:14.782Z,37.11
2019-02-25T16:47:46.892Z,37.75
2019-02-25T16:50:20.937Z,38.22
2019-02-25T16:52:53.848Z,38.82
2019-02-25T16:55:27.748Z,39.19
2019-02-25T16:58:03.462Z,39.95
2019-02-25T17:00:37.086Z,40.79
2019-02-25T17:03:11.243Z,41.48
2019-02-25T17:05:47.136Z,41.82
2019-02-25T17:08:19.815Z,42.37
2019-02-25T17:10:53.563Z,42.78
2019-02-25T17:13:29.304Z,42.94
2019-02-25T17:16:03.268Z,43.46
2019-02-25T17:18:35.501Z,43.96
2019-02-25T17:21:08.119Z,44.62
2019-02-25T17:23:40.521Z,44.93
2019-02-25T17:26:14.796Z,45.32
2019-02-25T17:28:46.970Z,45.70
2019-02-25T17:31:19.020Z,46.10
2019-02-25T17:33:51.898Z,46.51
2019-02-25T17:36:24.940Z,46.71
2019-02-25T17:38:58.843Z,46.94
2019-02-25T17:41:30.982Z,47.27
2019-02-25T17:44:03.578Z,47.58
2019-02-25T17:46:38.694Z,47.95
2019-02-25T17:49:12.258Z,48.43
2019-02-25T17:51:44.885Z,48.74
2019-02-25T17:54:16.941Z,48.88
2019-02-25T17:56:49.766Z,49.38
2019-02-25T17:59:23.539Z,49.63
2019-02-25T18:01:56.978Z,50.02
2019-02-25T18:04:30.884Z,50.46
2019-02-25T18:07:02.982Z,50.56
2019-02-25T18:09:35.916Z,50.86
2019-02-25T18:12:10.663Z,51.17
2019-02-25T18:14:43.673Z,51.62
2019-02-25T18:17:17.550Z,51.62
2019-02-25T18:19:52.481Z,52.17
2019-02-25T18:22:24.725Z,52.45
2019-02-25T18:24:56.798Z,52.62
2019-02-25T18:27:28.849Z,52.77
2019-02-25T18:30:00.914Z,52.90
2019-02-25T18:32:34.834Z,53.21
2019-02-25T18:35:07.611Z,53.57
2019-02-25T18:37:40.208Z,55.11
2019-02-25T18:40:16.187Z,54.52
2019-02-25T18:42:48.228Z,54.78
2019-02-25T18:45:20.823Z,55.04
2019-02-25T18:47:53.135Z,55.24
2019-02-25T18:50:26.859Z,55.33
2019-02-25T18:53:01.221Z,55.33
2019-02-25T18:55:34.191Z,55.74
2019-02-25T18:58:07.904Z,55.71
2019-02-25T19:00:42.991Z,55.87
2019-02-25T19:03:16.085Z,56.03
2019-02-25T19:05:49.014Z,56.21
2019-02-25T19:08:24.286Z,56.40
2019-02-25T19:10:57.269Z,56.63
2019-02-25T19:13:30.363Z,56.58
2019-02-25T19:16:04.589Z,56.73
2019-02-25T19:18:40.827Z,56.80
2019-02-25T19:21:11.270Z,56.88
2019-02-25T19:23:46.434Z,56.97
2019-02-25T19:26:19.639Z,57.21
2019-02-25T19:28:54.595Z,57.42
2019-02-25T19:31:26.996Z,57.66
2019-02-25T19:34:00.565Z,57.88
2019-02-25T19:36:34.892Z,58.04
2019-02-25T19:43:09.291Z,58.55
2019-02-25T19:45:31.133Z,58.82
2019-02-25T19:48:05.331Z,58.95
2019-02-25T19:50:47.838Z,59.26
2019-02-25T19:53:12.627Z,59.27
2019-02-25T19:55:46.145Z,59.09
2019-02-25T19:58:19.461Z,59.00
2019-02-25T20:00:56.159Z,59.13
2019-02-25T20:03:25.509Z,59.14
2019-02-25T20:05:57.566Z,59.33
2019-02-25T20:08:29.768Z,59.30
2019-02-25T20:11:01.891Z,59.26
2019-02-25T20:13:34.007Z,59.16
2019-02-25T20:16:08.120Z,59.17
2019-02-25T20:18:41.870Z,59.40
2019-02-25T20:21:14.062Z,59.66
2019-02-25T20:23:47.949Z,60.22
2019-02-25T20:26:22.428Z,60.52
2019-02-25T20:28:54.909Z,60.75
2019-02-25T20:31:27.000Z,60.94
2019-02-25T20:33:59.949Z,60.97
2019-02-25T20:36:33.010Z,61.57
2019-02-25T20:39:05.381Z,61.86
2019-02-25T20:41:37.464Z,62.31
2019-02-25T20:44:09.533Z,62.47
2019-02-25T20:46:41.598Z,62.59
2019-02-25T20:49:16.140Z,62.95
2019-02-25T20:51:49.607Z,63.27
2019-02-25T20:54:22.741Z,63.36
2019-02-25T20:56:55.498Z,64.23
2019-02-25T20:59:28.725Z,63.37
2019-02-25T21:02:01.618Z,63.33
2019-02-25T21:04:36.459Z,63.25
2019-02-25T21:07:08.932Z,62.99
2019-02-25T21:09:42.278Z,62.94
2019-02-25T21:12:18.493Z,63.06
2019-02-25T21:14:53.027Z,63.31
2019-02-25T21:17:25.168Z,63.57
2019-02-25T21:19:58.268Z,63.62
2019-02-25T21:22:36.232Z,62.89
2019-02-25T21:25:08.406Z,62.97
2019-02-25T21:27:41.222Z,63.61
2019-02-25T21:30:14.509Z,63.94
2019-02-25T21:32:47.382Z,64.20
2019-02-25T21:35:23.517Z,64.46
2019-02-25T21:37:55.610Z,64.91
2019-02-25T21:40:29.915Z,65.25
2019-02-25T21:43:01.689Z,65.74
2019-02-25T21:45:33.689Z,66.03
2019-02-25T21:48:07.661Z,66.22
2019-02-25T21:50:40.407Z,66.35
2019-02-25T21:53:15.887Z,66.41
2019-02-25T21:55:47.620Z,66.87
2019-02-25T21:58:21.380Z,67.35
2019-02-25T22:00:53.615Z,67.17
2019-02-25T22:03:25.676Z,67.21
2019-02-25T22:06:00.251Z,66.92
2019-02-25T22:08:33.561Z,66.57
2019-02-25T22:11:12.204Z,66.44
2019-02-25T22:13:39.509Z,66.54
2019-02-25T22:16:11.492Z,66.82
2019-02-25T22:18:43.502Z,66.80
2019-02-25T22:21:17.224Z,66.55
2019-02-25T22:23:52.075Z,66.75
2019-02-25T22:26:28.383Z,66.55
2019-02-25T22:28:59.305Z,66.60
2019-02-25T22:31:34.354Z,66.88
2019-02-25T22:34:06.760Z,66.95
2019-02-25T22:36:41.587Z,66.99
2019-02-25T22:39:12.902Z,66.56
2019-02-25T22:41:46.521Z,66.49
2019-02-25T22:44:18.821Z,66.43
2019-02-25T22:46:50.805Z,66.92
2019-02-25T22:49:24.642Z,67.07
2019-02-25T22:51:58.152Z,67.21
2019-02-25T22:54:30.591Z,66.83
2019-02-25T22:57:02.593Z,66.57
2019-02-25T22:59:35.491Z,66.44
2019-02-25T23:02:08.791Z,66.57
2019-02-25T23:04:44.940Z,66.55
2019-02-25T23:07:17.576Z,66.55
2019-02-25T23:09:50.046Z,66.89
2019-02-25T23:12:24.277Z,66.77
2019-02-25T23:14:58.891Z,66.79
2019-02-25T23:17:33.331Z,67.05
2019-02-25T23:20:07.755Z,67.33
2019-02-25T23:22:40.389Z,66.99
2019-02-25T23:25:12.430Z,67.83
2019-02-25T23:27:44.464Z,68.07
2019-02-25T23:30:16.478Z,68.46
2019-02-25T23:32:48.435Z,68.85
2019-02-25T23:35:21.170Z,68.90
2019-02-25T23:37:56.250Z,68.90
2019-02-25T23:40:31.216Z,69.09
2019-02-25T23:43:03.319Z,69.19
2019-02-25T23:45:37.829Z,69.16
2019-02-25T23:48:11.802Z,69.46
2019-02-25T23:50:43.842Z,69.55
2019-02-25T23:53:15.805Z,69.64
2019-02-25T23:55:49.518Z,69.81
2019-02-25T23:58:23.648Z,70.20
